createdAt,value
2022-11-15T00:01:11.069Z,90.07
2022-11-15T00:03:38.741Z,89.67
2022-11-15T00:06:07.130Z,89.79
2022-11-15T00:08:35.202Z,89.51
2022-11-15T00:11:04.587Z,90.31
2022-11-15T00:13:34.307Z,91.15
2022-11-15T00:16:03.685Z,91.91
2022-11-15T00:18:32.522Z,90.60
2022-11-15T00:21:06.456Z,90.72
2022-11-15T00:23:34.930Z,91.01
2022-11-15T00:26:03.001Z,89.11
2022-11-15T00:28:30.905Z,88.54
2022-11-15T00:31:03.986Z,89.43
2022-11-15T00:33:37.016Z,88.80
2022-11-15T00:36:06.289Z,89.28
2022-11-15T00:38:34.861Z,88.48
2022-11-15T00:41:08.885Z,88.53
2022-11-15T00:43:37.374Z,88.85
2022-11-15T00:46:06.653Z,89.49
2022-11-15T00:48:34.431Z,90.42
2022-11-15T00:51:02.216Z,89.03
2022-11-15T00:53:30.556Z,88.14
2022-11-15T00:55:58.584Z,88.63
2022-11-15T00:58:26.359Z,89.17
2022-11-15T01:00:54.208Z,89.86
2022-11-15T01:03:23.344Z,88.71
2022-11-15T01:05:51.238Z,88.62
2022-11-15T01:08:19.060Z,88.43
2022-11-15T01:10:46.790Z,88.10
2022-11-15T01:13:14.563Z,88.63
2022-11-15T01:15:42.686Z,88.33
2022-11-15T01:18:10.680Z,86.93
2022-11-15T01:20:43.185Z,88.79
2022-11-15T01:23:11.087Z,86.69
2022-11-15T01:25:38.807Z,87.83
2022-11-15T01:28:06.699Z,89.11
2022-11-15T01:30:34.368Z,88.66
2022-11-15T01:33:02.126Z,88.52
2022-11-15T01:35:29.870Z,88.32
2022-11-15T01:37:58.933Z,88.24
2022-11-15T01:40:26.730Z,88.70
2022-11-15T01:42:54.423Z,87.03
2022-11-15T01:45:22.255Z,88.05
2022-11-15T01:47:53.388Z,87.83
2022-11-15T01:50:24.504Z,87.47
2022-11-15T01:52:52.281Z,88.55
2022-11-15T01:55:23.794Z,88.17
2022-11-15T01:57:55.154Z,87.43
2022-11-15T02:00:23.084Z,88.07
2022-11-15T02:02:50.868Z,87.59
2022-11-15T02:05:18.717Z,88.82
2022-11-15T02:07:47.201Z,87.62
2022-11-15T02:10:16.560Z,87.59
2022-11-15T02:12:46.635Z,87.11
2022-11-15T02:15:15.093Z,87.55
2022-11-15T02:17:58.678Z,88.47
2022-11-15T02:20:44.509Z,88.18
2022-11-15T02:23:54.931Z,87.33
2022-11-15T02:26:43.500Z,88.50
2022-11-15T02:29:17.615Z,88.85
2022-11-15T02:31:53.662Z,87.95
2022-11-15T02:34:28.390Z,87.75
2022-11-15T02:37:07.918Z,87.46
2022-11-15T02:39:41.550Z,88.17
2022-11-15T02:42:28.874Z,87.43
2022-11-15T02:44:59.233Z,88.11
2022-11-15T02:47:32.240Z,88.01
2022-11-15T02:50:04.149Z,88.40
2022-11-15T02:52:31.875Z,89.29
2022-11-15T02:55:01.820Z,88.88
2022-11-15T02:57:46.195Z,88.23
2022-11-15T03:00:16.196Z,88.03
2022-11-15T03:03:07.484Z,89.93
2022-11-15T03:05:42.552Z,89.63
2022-11-15T03:08:19.449Z,89.90
2022-11-15T03:10:58.765Z,89.50
2022-11-15T03:13:29.478Z,91.59
2022-11-15T03:16:05.317Z,91.68
2022-11-15T03:18:37.973Z,91.88
2022-11-15T03:21:09.803Z,91.66
2022-11-15T03:23:39.278Z,93.26
2022-11-15T03:26:09.627Z,93.46
2022-11-15T03:28:40.908Z,93.13
2022-11-15T03:31:24.934Z,93.29
2022-11-15T03:33:57.110Z,93.38
2022-11-15T03:36:26.948Z,93.26
2022-11-15T03:38:58.870Z,93.91
2022-11-15T03:41:31.836Z,93.11
2022-11-15T03:44:06.517Z,93.64
2022-11-15T03:46:38.923Z,94.88
2022-11-15T03:49:13.828Z,93.99
2022-11-15T03:51:42.367Z,93.97
2022-11-15T03:54:10.153Z,95.33
2022-11-15T03:56:37.821Z,94.19
2022-11-15T03:59:05.621Z,94.21
2022-11-15T04:01:33.350Z,93.70
2022-11-15T04:04:01.113Z,94.93
2022-11-15T04:06:30.161Z,94.23
2022-11-15T04:08:57.938Z,93.68
2022-11-15T04:11:25.689Z,93.66
2022-11-15T04:13:53.356Z,94.23
2022-11-15T04:16:21.151Z,93.60
2022-11-15T04:19:09.633Z,95.28
2022-11-15T04:21:56.365Z,95.02
2022-11-15T04:24:24.041Z,95.89
2022-11-15T04:26:51.806Z,94.91
2022-11-15T04:29:37.915Z,96.26
2022-11-15T04:32:07.822Z,95.67
2022-11-15T04:34:36.123Z,96.52
2022-11-15T04:37:13.134Z,96.16
2022-11-15T04:39:41.217Z,95.78
2022-11-15T04:42:09.701Z,96.52
2022-11-15T04:44:37.477Z,98.34
2022-11-15T04:47:05.552Z,98.89
2022-11-15T04:49:33.248Z,99.81
2022-11-15T04:52:01.262Z,98.97
2022-11-15T04:54:30.622Z,100.00
2022-11-15T04:56:58.348Z,100.00
2022-11-15T04:59:26.088Z,100.00
2022-11-15T05:01:53.821Z,100.00
2022-11-15T05:04:20.502Z,100.00
2022-11-15T05:06:49.985Z,100.00
2022-11-15T05:09:18.339Z,100.00
2022-11-15T05:11:48.648Z,100.00
2022-11-15T05:14:16.663Z,100.00
2022-11-15T05:16:44.770Z,100.00
2022-11-15T05:19:12.769Z,100.00
2022-11-15T05:21:40.708Z,100.00
2022-11-15T05:24:08.545Z,100.00
2022-11-15T05:26:36.268Z,100.00
2022-11-15T05:29:05.407Z,100.00
2022-11-15T05:31:33.085Z,100.00
2022-11-15T05:34:02.829Z,100.00
2022-11-15T05:36:35.797Z,100.00
2022-11-15T05:39:04.901Z,100.00
2022-11-15T05:41:37.747Z,100.00
2022-11-15T05:44:09.704Z,100.00
2022-11-15T05:46:39.496Z,100.00
2022-11-15T05:49:10.110Z,100.00
2022-11-15T05:51:38.040Z,100.00
2022-11-15T05:54:05.927Z,100.00
2022-11-15T05:56:33.845Z,100.00
2022-11-15T05:59:01.917Z,100.00
2022-11-15T06:01:31.840Z,100.00
2022-11-15T06:03:59.520Z,100.00
2022-11-15T06:06:29.104Z,100.00
2022-11-15T06:08:56.973Z,100.00
2022-11-15T06:11:24.760Z,100.00
2022-11-15T06:13:52.484Z,100.00
2022-11-15T06:16:20.176Z,100.00
2022-11-15T06:18:49.249Z,100.00
2022-11-15T06:21:16.958Z,100.00
2022-11-15T06:23:44.737Z,100.00
2022-11-15T06:26:12.437Z,100.00
2022-11-15T06:28:40.162Z,100.00
2022-11-15T06:31:11.861Z,100.00
2022-11-15T06:33:40.533Z,100.00
2022-11-15T06:36:17.545Z,100.00
2022-11-15T06:38:46.081Z,100.00
2022-11-15T06:41:14.791Z,100.00
2022-11-15T06:43:42.789Z,100.00
2022-11-15T06:46:10.560Z,100.00
2022-11-15T06:48:38.422Z,100.00
2022-11-15T06:51:07.261Z,100.00
2022-11-15T06:53:36.570Z,100.00
2022-11-15T06:56:06.361Z,100.00
2022-11-15T06:58:34.232Z,100.00
2022-11-15T07:01:02.159Z,100.00
2022-11-15T07:03:30.605Z,100.00
2022-11-15T07:06:05.783Z,100.00
2022-11-15T07:08:37.328Z,100.00
2022-11-15T07:11:08.999Z,100.00
2022-11-15T07:13:38.281Z,100.00
2022-11-15T07:16:07.342Z,100.00
2022-11-15T07:18:36.049Z,100.00
2022-11-15T07:21:05.521Z,100.00
2022-11-15T07:23:34.185Z,100.00
2022-11-15T07:26:03.477Z,100.00
2022-11-15T07:28:31.646Z,100.00
2022-11-15T07:30:59.456Z,100.00
2022-11-15T07:33:27.146Z,100.00
2022-11-15T07:35:54.893Z,100.00
2022-11-15T07:38:22.573Z,100.00
2022-11-15T07:40:59.249Z,100.00
2022-11-15T07:43:30.725Z,100.00
2022-11-15T07:45:59.547Z,100.00
2022-11-15T07:48:42.205Z,100.00
2022-11-15T07:51:14.283Z,100.00
2022-11-15T07:53:42.365Z,100.00
2022-11-15T07:56:10.671Z,100.00
2022-11-15T07:58:39.748Z,100.00
2022-11-15T08:01:08.466Z,100.00
2022-11-15T08:03:37.112Z,100.00
2022-11-15T08:06:05.956Z,100.00
2022-11-15T08:08:33.710Z,100.00
2022-11-15T08:11:01.605Z,100.00
2022-11-15T08:13:30.060Z,100.00
2022-11-15T08:16:01.467Z,100.00
2022-11-15T08:18:29.168Z,100.00
2022-11-15T08:21:01.510Z,100.00
2022-11-15T08:23:29.968Z,100.00
2022-11-15T08:26:03.193Z,100.00
2022-11-15T08:28:31.203Z,100.00
2022-11-15T08:30:58.947Z,100.00
2022-11-15T08:33:28.864Z,100.00
2022-11-15T08:35:58.196Z,100.00
2022-11-15T08:38:26.464Z,100.00
2022-11-15T08:40:55.537Z,100.00
2022-11-15T08:43:23.207Z,100.00
2022-11-15T08:45:50.897Z,100.00
2022-11-15T08:48:18.623Z,100.00
2022-11-15T08:50:47.696Z,100.00
2022-11-15T08:53:15.581Z,100.00
2022-11-15T08:55:43.408Z,100.00
2022-11-15T08:58:11.104Z,100.00
2022-11-15T09:00:38.870Z,100.00
2022-11-15T09:03:07.296Z,100.00
2022-11-15T09:05:37.995Z,100.00
2022-11-15T09:08:25.550Z,100.00
2022-11-15T09:10:55.098Z,100.00
2022-11-15T09:13:22.913Z,100.00
2022-11-15T09:15:50.744Z,100.00
2022-11-15T09:18:18.445Z,100.00
2022-11-15T09:20:46.271Z,100.00
2022-11-15T09:23:15.425Z,100.00
2022-11-15T09:25:43.185Z,100.00
2022-11-15T09:28:10.949Z,100.00
2022-11-15T09:30:38.715Z,100.00
2022-11-15T09:33:10.278Z,100.00
2022-11-15T09:35:38.292Z,100.00
2022-11-15T09:38:06.476Z,100.00
2022-11-15T09:40:38.857Z,100.00
2022-11-15T09:43:25.109Z,100.00
2022-11-15T09:46:01.982Z,100.00
2022-11-15T09:48:51.589Z,100.00
2022-11-15T09:51:27.989Z,100.00
2022-11-15T09:56:59.681Z,100.00
2022-11-15T09:59:47.228Z,100.00
2022-11-15T10:02:28.507Z,100.00
2022-11-15T10:04:56.267Z,100.00
2022-11-15T10:07:30.300Z,100.00
2022-11-15T10:10:02.944Z,100.00
2022-11-15T10:12:33.067Z,100.00
2022-11-15T10:15:05.213Z,100.00
2022-11-15T10:17:57.958Z,100.00
2022-11-15T10:20:28.521Z,100.00
2022-11-15T10:23:00.852Z,100.00
2022-11-15T10:25:30.541Z,100.00
2022-11-15T10:28:03.143Z,100.00
2022-11-15T10:30:37.657Z,100.00
2022-11-15T10:33:27.045Z,100.00
2022-11-15T10:36:17.295Z,100.00
2022-11-15T10:38:57.367Z,100.00
2022-11-15T10:41:34.149Z,100.00
2022-11-15T10:44:25.343Z,100.00
2022-11-15T10:47:39.503Z,100.00
2022-11-15T10:50:10.063Z,100.00
2022-11-15T10:52:38.887Z,100.00
2022-11-15T10:55:24.948Z,100.00
2022-11-15T10:57:54.754Z,100.00
2022-11-15T11:00:34.373Z,100.00
2022-11-15T11:03:04.060Z,100.00
2022-11-15T11:05:38.132Z,100.00
2022-11-15T11:08:24.333Z,100.00
2022-11-15T11:11:01.523Z,100.00
2022-11-15T11:13:32.682Z,100.00
2022-11-15T11:16:26.000Z,100.00
2022-11-15T11:19:04.336Z,100.00
2022-11-15T11:21:44.955Z,100.00
2022-11-15T11:24:20.891Z,100.00
2022-11-15T11:27:06.332Z,100.00
2022-11-15T11:29:47.951Z,100.00
2022-11-15T11:32:31.272Z,100.00
2022-11-15T11:35:07.663Z,100.00
2022-11-15T11:37:41.981Z,100.00
2022-11-15T11:40:23.260Z,100.00
2022-11-15T11:43:00.207Z,100.00
2022-11-15T11:45:50.705Z,100.00
2022-11-15T11:48:42.475Z,100.00
2022-11-15T11:51:18.268Z,100.00
2022-11-15T11:53:54.275Z,100.00
2022-11-15T11:56:29.795Z,100.00
2022-11-15T11:59:04.444Z,98.23
2022-11-15T12:01:37.683Z,100.00
2022-11-15T12:04:14.913Z,100.00
2022-11-15T12:06:48.589Z,98.52
2022-11-15T12:09:22.699Z,96.66
2022-11-15T12:11:57.036Z,96.91
2022-11-15T12:14:32.931Z,97.30
2022-11-15T12:17:01.419Z,97.44
2022-11-15T12:19:31.463Z,97.64
2022-11-15T12:22:14.896Z,98.53
2022-11-15T12:24:47.845Z,95.91
2022-11-15T12:27:26.321Z,93.72
2022-11-15T12:29:58.824Z,94.67
2022-11-15T12:32:30.827Z,94.14
2022-11-15T12:35:01.135Z,93.42
2022-11-15T12:37:59.948Z,90.42
2022-11-15T12:40:33.835Z,91.46
2022-11-15T12:43:34.218Z,89.07
2022-11-15T12:46:07.272Z,88.04
2022-11-15T12:48:51.405Z,86.20
2022-11-15T12:51:22.023Z,86.64
2022-11-15T12:53:49.951Z,86.17
2022-11-15T12:56:24.866Z,88.01
2022-11-15T12:58:55.750Z,87.30
2022-11-15T13:01:58.234Z,87.04
2022-11-15T13:04:28.747Z,86.42
2022-11-15T13:07:00.785Z,85.70
2022-11-15T13:09:55.347Z,85.50
2022-11-15T13:13:02.886Z,88.27
2022-11-15T13:15:57.131Z,90.62
2022-11-15T13:18:37.444Z,94.87
2022-11-15T13:21:37.166Z,99.54
2022-11-15T13:24:06.966Z,99.52
2022-11-15T13:26:34.799Z,100.00
2022-11-15T13:29:02.925Z,100.00
2022-11-15T13:31:37.012Z,100.00
2022-11-15T13:34:36.570Z,100.00
2022-11-15T13:37:05.226Z,100.00
2022-11-15T13:39:38.282Z,100.00
2022-11-15T13:42:06.151Z,100.00
2022-11-15T13:44:35.410Z,100.00
2022-11-15T13:47:06.093Z,99.54
2022-11-15T13:49:35.720Z,99.72
2022-11-15T13:52:06.970Z,100.00
2022-11-15T13:54:40.747Z,100.00
2022-11-15T13:57:14.237Z,100.00
2022-11-15T13:59:48.749Z,100.00
2022-11-15T14:02:19.121Z,100.00
2022-11-15T14:04:50.136Z,100.00
2022-11-15T14:07:21.123Z,100.00
2022-11-15T14:09:50.836Z,98.04
2022-11-15T14:12:32.589Z,97.54
2022-11-15T14:15:01.389Z,95.07
2022-11-15T14:17:38.516Z,92.15
2022-11-15T14:20:28.097Z,90.42
2022-11-15T14:22:56.960Z,88.92
2022-11-15T14:25:28.410Z,88.79
2022-11-15T14:28:15.079Z,88.88
2022-11-15T14:30:44.248Z,87.65
2022-11-15T14:33:25.071Z,86.37
2022-11-15T14:35:53.956Z,84.60
2022-11-15T14:38:21.749Z,84.33
2022-11-15T14:40:51.116Z,83.70
2022-11-15T14:43:18.873Z,84.48
2022-11-15T14:45:46.621Z,83.93
2022-11-15T14:48:14.293Z,83.86
2022-11-15T14:50:42.325Z,83.03
2022-11-15T14:53:14.124Z,85.40
2022-11-15T14:55:41.951Z,86.18
2022-11-15T14:58:11.655Z,85.65
2022-11-15T15:00:41.610Z,86.59
2022-11-15T15:03:10.185Z,88.79
2022-11-15T15:05:39.947Z,92.91
2022-11-15T15:08:08.659Z,91.77
2022-11-15T15:10:41.221Z,88.85
2022-11-15T15:13:18.360Z,85.94
2022-11-15T15:15:46.285Z,84.84
2022-11-15T15:18:14.032Z,84.95
2022-11-15T15:20:43.505Z,83.62
2022-11-15T15:23:17.901Z,83.28
2022-11-15T15:25:46.504Z,84.58
2022-11-15T15:28:15.977Z,84.52
2022-11-15T15:30:43.698Z,83.59
2022-11-15T15:33:11.428Z,82.91
2022-11-15T15:35:39.141Z,82.31
2022-11-15T15:38:06.864Z,82.49
2022-11-15T15:40:35.607Z,82.92
2022-11-15T15:43:03.483Z,82.75
2022-11-15T15:45:34.400Z,82.60
2022-11-15T15:48:02.086Z,81.84
2022-11-15T15:50:32.061Z,81.10
2022-11-15T15:53:01.864Z,80.95
2022-11-15T15:55:30.013Z,80.22
2022-11-15T15:57:57.774Z,82.12
2022-11-15T16:00:27.209Z,80.47
2022-11-15T16:02:56.710Z,81.47
2022-11-15T16:05:24.544Z,81.82
2022-11-15T16:07:52.697Z,80.45
2022-11-15T16:10:23.901Z,81.94
2022-11-15T16:12:51.888Z,80.93
2022-11-15T16:15:20.148Z,80.95
2022-11-15T16:17:51.730Z,81.91
2022-11-15T16:20:33.369Z,82.86
2022-11-15T16:23:07.270Z,82.77
2022-11-15T16:25:40.625Z,82.18
2022-11-15T16:28:18.217Z,82.39
2022-11-15T16:30:46.185Z,82.75
2022-11-15T16:33:13.947Z,81.58
2022-11-15T16:35:42.987Z,79.92
2022-11-15T16:38:16.282Z,80.23
2022-11-15T16:40:44.392Z,79.18
2022-11-15T16:43:12.596Z,83.34
2022-11-15T16:45:40.439Z,84.56
2022-11-15T16:48:08.196Z,85.88
2022-11-15T16:50:40.775Z,87.10
2022-11-15T16:53:09.901Z,86.58
2022-11-15T16:55:37.675Z,86.84
2022-11-15T16:58:05.353Z,87.26
2022-11-15T17:00:33.110Z,87.02
2022-11-15T17:03:00.891Z,89.82
2022-11-15T17:05:28.600Z,89.05
2022-11-15T17:07:56.672Z,88.78
2022-11-15T17:10:27.348Z,87.82
2022-11-15T17:12:57.023Z,88.63
2022-11-15T17:15:25.487Z,88.24
2022-11-15T17:17:54.339Z,87.73
2022-11-15T17:20:24.887Z,88.24
2022-11-15T17:22:53.632Z,88.78
2022-11-15T17:25:21.680Z,88.48
2022-11-15T17:27:50.922Z,86.67
2022-11-15T17:30:20.280Z,87.92
2022-11-15T17:32:49.684Z,89.07
2022-11-15T17:35:17.588Z,87.48
2022-11-15T17:37:45.365Z,88.69
2022-11-15T17:40:13.370Z,88.71
2022-11-15T17:42:43.061Z,87.74
2022-11-15T17:45:12.429Z,90.13
2022-11-15T17:47:40.362Z,88.10
2022-11-15T17:50:08.419Z,88.91
2022-11-15T17:52:36.113Z,88.38
2022-11-15T17:55:04.093Z,87.90
2022-11-15T17:57:31.875Z,88.02
2022-11-15T17:59:59.623Z,86.87
2022-11-15T18:02:28.789Z,89.98
2022-11-15T18:04:56.473Z,89.67
2022-11-15T18:07:24.273Z,88.41
2022-11-15T18:09:52.009Z,88.72
2022-11-15T18:12:19.787Z,88.16
2022-11-15T18:14:47.506Z,89.14
2022-11-15T18:17:15.261Z,89.64
2022-11-15T18:19:44.304Z,89.48
2022-11-15T18:22:12.042Z,88.32
2022-11-15T18:24:41.341Z,88.33
2022-11-15T18:27:09.109Z,87.59
2022-11-15T18:29:38.010Z,88.19
2022-11-15T18:32:12.394Z,88.73
2022-11-15T18:34:40.274Z,88.18
2022-11-15T18:37:09.381Z,88.40
2022-11-15T18:39:37.756Z,87.38
2022-11-15T18:42:05.969Z,87.06
2022-11-15T18:44:34.411Z,86.19
2022-11-15T18:47:02.151Z,87.02
2022-11-15T18:49:29.946Z,87.84
2022-11-15T18:51:57.654Z,87.08
2022-11-15T18:54:31.068Z,86.90
2022-11-15T18:56:59.584Z,86.64
2022-11-15T18:59:28.185Z,87.13
2022-11-15T19:01:56.867Z,86.42
2022-11-15T19:04:24.623Z,89.75
2022-11-15T19:06:53.468Z,87.23
2022-11-15T19:09:21.430Z,87.68
2022-11-15T19:11:51.990Z,87.78
2022-11-15T19:14:23.801Z,86.56
2022-11-15T19:16:52.328Z,86.39
2022-11-15T19:19:21.709Z,88.93
2022-11-15T19:21:49.632Z,88.33
2022-11-15T19:24:17.396Z,88.38
2022-11-15T19:26:45.632Z,87.07
2022-11-15T19:29:15.087Z,87.90
2022-11-15T19:31:43.132Z,89.37
2022-11-15T19:34:11.263Z,88.21
2022-11-15T19:36:41.015Z,88.39
2022-11-15T19:39:11.150Z,87.61
2022-11-15T19:41:42.057Z,88.20
2022-11-15T19:44:10.890Z,87.67
2022-11-15T19:46:40.533Z,86.89
2022-11-15T19:49:10.477Z,88.59
2022-11-15T19:51:38.933Z,87.69
2022-11-15T19:54:08.918Z,89.52
2022-11-15T19:56:37.690Z,90.19
2022-11-15T19:59:06.083Z,90.55
2022-11-15T20:01:37.911Z,90.78
2022-11-15T20:04:09.714Z,90.04
2022-11-15T20:06:40.121Z,92.46
2022-11-15T20:09:08.093Z,90.77
2022-11-15T20:11:37.898Z,91.00
2022-11-15T20:14:06.510Z,92.42
2022-11-15T20:16:34.492Z,90.10
2022-11-15T20:19:02.378Z,90.48
2022-11-15T20:21:31.469Z,94.39
2022-11-15T20:23:59.300Z,97.64
2022-11-15T20:26:27.208Z,99.51
2022-11-15T20:29:00.976Z,98.65
2022-11-15T20:31:29.557Z,98.84
2022-11-15T20:33:57.332Z,98.74
2022-11-15T20:36:25.479Z,97.15
2022-11-15T20:38:58.152Z,98.37
2022-11-15T20:41:26.540Z,100.00
2022-11-15T20:43:54.298Z,98.75
2022-11-15T20:46:22.029Z,100.00
2022-11-15T20:48:49.757Z,100.00
2022-11-15T20:51:19.760Z,100.00
2022-11-15T20:53:48.694Z,99.83
2022-11-15T20:56:19.749Z,99.74
2022-11-15T20:58:50.076Z,100.00
2022-11-15T21:01:23.085Z,100.00
2022-11-15T21:03:52.056Z,98.79
2022-11-15T21:06:20.935Z,97.14
2022-11-15T21:09:06.391Z,98.89
2022-11-15T21:11:52.908Z,99.04
2022-11-15T21:14:20.895Z,97.98
2022-11-15T21:16:48.664Z,98.04
2022-11-15T21:19:16.451Z,97.24
2022-11-15T21:21:44.219Z,98.50
2022-11-15T21:24:12.024Z,98.82
2022-11-15T21:26:41.405Z,98.49
2022-11-15T21:29:09.343Z,99.21
2022-11-15T21:31:37.432Z,98.53
2022-11-15T21:34:07.184Z,98.84
2022-11-15T21:36:34.955Z,99.40
2022-11-15T21:39:02.969Z,99.86
2022-11-15T21:41:31.209Z,99.14
2022-11-15T21:44:00.956Z,97.30
2022-11-15T21:46:29.213Z,97.62
2022-11-15T21:48:57.274Z,97.72
2022-11-15T21:51:25.708Z,97.12
2022-11-15T21:53:55.852Z,97.36
2022-11-15T21:56:23.892Z,97.77
2022-11-15T21:58:51.606Z,96.64
2022-11-15T22:01:38.224Z,95.43
2022-11-15T22:04:07.056Z,95.42
2022-11-15T22:06:35.113Z,96.94
2022-11-15T22:09:03.600Z,96.38
2022-11-15T22:11:31.337Z,94.96
2022-11-15T22:13:59.115Z,99.36
2022-11-15T22:16:28.224Z,97.51
2022-11-15T22:18:56.245Z,98.32
2022-11-15T22:21:24.056Z,96.88
2022-11-15T22:23:51.777Z,95.22
2022-11-15T22:26:23.815Z,96.96
2022-11-15T22:28:52.136Z,97.63
2022-11-15T22:31:20.180Z,99.30
2022-11-15T22:33:49.251Z,98.63
2022-11-15T22:36:17.253Z,97.72
2022-11-15T22:38:44.918Z,98.06
2022-11-15T22:41:12.872Z,97.33
2022-11-15T22:43:40.676Z,100.00
2022-11-15T22:46:08.531Z,98.09
2022-11-15T22:48:38.068Z,99.40
2022-11-15T22:51:08.258Z,100.00
2022-11-15T22:53:36.006Z,100.00
2022-11-15T22:56:05.756Z,100.00
2022-11-15T22:58:34.346Z,100.00
2022-11-15T23:01:04.129Z,100.00
2022-11-15T23:03:33.067Z,100.00
2022-11-15T23:06:05.428Z,100.00
2022-11-15T23:08:34.951Z,100.00
2022-11-15T23:11:20.933Z,100.00
2022-11-15T23:13:51.765Z,100.00
2022-11-15T23:16:34.233Z,100.00
2022-11-15T23:19:04.180Z,99.78
2022-11-15T23:21:51.756Z,99.87
2022-11-15T23:24:21.705Z,100.00
2022-11-15T23:26:51.563Z,100.00
2022-11-15T23:29:21.586Z,99.38
2022-11-15T23:32:06.978Z,100.00
2022-11-15T23:34:37.320Z,100.00
2022-11-15T23:37:06.074Z,100.00
2022-11-15T23:39:35.159Z,100.00
2022-11-15T23:42:08.581Z,99.62
2022-11-15T23:44:37.017Z,100.00
2022-11-15T23:47:04.786Z,99.33
2022-11-15T23:49:32.597Z,99.98
2022-11-15T23:52:00.308Z,100.00
2022-11-15T23:54:28.084Z,98.88
2022-11-15T23:56:57.145Z,100.00
2022-11-15T23:59:24.913Z,98.94
